KSTS

Charles M Schulz - Sonoma County Airport

Santa Rosa, California, USA
METAR KSTS 220153Z 15009KT 8SM CLR 18/11 A2977 RMK AO2 SLP073 T01780111
Observed Flight Rules
May-22 @ 01:53 UTC (41 minutes ago) Visual Flight Rules
Wind Visibility Clouds
150° at 9 knots 8 miles
  • Clear skies
Temperatures Readings
Current 18°C / 64°F
Dewpoint 11°C / 52°F
Humidity 64%
Altimeter 29.77" Hg
Pressure 1007.3 hPa
Elevation 39
METAR KSTS 220153Z 15009KT 8SM CLR 18/11 A2977 RMK AO2 SLP073 T01780111
Observed Flight Rules
May-22 @ 01:53 UTC
(41 minutes ago)
VFR
Wind Visibility
150° at 9 knots 8 miles
Clouds
  • Clear skies
Temperature Dewpoint
18°C / 64°F 11°C / 52°F
Humidity Altimeter Pressure
64% 29.77" Hg 1007.3 hPa